createdAt,value
2022-12-14T00:00:54.387Z,-2.34
2022-12-14T00:03:26.435Z,-2.40
2022-12-14T00:05:58.419Z,-2.43
2022-12-14T00:08:30.307Z,-2.48
2022-12-14T00:11:02.356Z,-2.59
2022-12-14T00:13:34.509Z,-2.58
2022-12-14T00:16:12.049Z,-2.61
2022-12-14T00:18:45.125Z,-2.56
2022-12-14T00:21:16.765Z,-2.61
2022-12-14T00:23:50.134Z,-2.67
2022-12-14T00:26:30.979Z,-2.53
2022-12-14T00:29:03.705Z,-2.55
2022-12-14T00:31:36.332Z,-2.70
2022-12-14T00:34:08.267Z,-2.74
2022-12-14T00:36:40.054Z,-2.82
2022-12-14T00:39:12.093Z,-2.84
2022-12-14T00:41:44.238Z,-2.93
2022-12-14T00:44:15.905Z,-2.88
2022-12-14T00:46:47.687Z,-3.05
2022-12-14T00:49:20.292Z,-3.18
2022-12-14T00:51:52.056Z,-2.96
2022-12-14T00:54:23.760Z,-2.87
2022-12-14T00:56:55.490Z,-2.85
2022-12-14T00:59:27.663Z,-2.85
2022-12-14T01:02:01.476Z,-2.83
2022-12-14T01:04:33.336Z,-2.87
2022-12-14T01:07:05.143Z,-2.84
2022-12-14T01:09:36.862Z,-2.90
2022-12-14T01:12:09.026Z,-2.92
2022-12-14T01:14:41.125Z,-2.86
2022-12-14T01:17:15.042Z,-2.87
2022-12-14T01:19:48.946Z,-2.88
2022-12-14T01:22:21.270Z,-2.89
2022-12-14T01:24:52.887Z,-2.97
2022-12-14T01:27:25.015Z,-2.95
2022-12-14T01:29:56.671Z,-2.94
2022-12-14T01:32:28.468Z,-2.95
2022-12-14T01:35:00.303Z,-2.90
2022-12-14T01:37:32.355Z,-2.90
2022-12-14T01:40:04.311Z,-2.88
2022-12-14T01:42:37.611Z,-2.99
2022-12-14T01:45:21.463Z,-2.97
2022-12-14T01:47:57.342Z,-2.97
2022-12-14T01:50:36.701Z,-2.93
2022-12-14T01:53:13.636Z,-2.90
2022-12-14T01:55:49.117Z,-3.00
2022-12-14T01:58:23.315Z,-3.19
2022-12-14T02:00:59.693Z,-3.06
2022-12-14T02:03:35.651Z,-3.04
2022-12-14T02:06:13.249Z,-3.08
2022-12-14T02:08:46.680Z,-3.03
2022-12-14T02:11:25.044Z,-3.05
2022-12-14T02:13:56.692Z,-3.12
2022-12-14T02:16:28.566Z,-3.09
2022-12-14T02:19:00.240Z,-3.07
2022-12-14T02:21:49.866Z,-3.08
2022-12-14T02:24:47.399Z,-3.12
2022-12-14T02:27:51.686Z,-3.16
2022-12-14T02:30:24.421Z,-3.11
2022-12-14T02:33:09.928Z,-3.10
2022-12-14T02:35:47.788Z,-3.18
2022-12-14T02:38:42.978Z,-3.17
2022-12-14T02:41:22.736Z,-3.15
2022-12-14T02:44:02.787Z,-3.20
2022-12-14T02:46:44.076Z,-3.17
2022-12-14T02:49:28.977Z,-3.16
2022-12-14T02:52:07.399Z,-3.17
2022-12-14T02:54:45.877Z,-3.22
2022-12-14T02:57:25.074Z,-3.21
2022-12-14T02:59:58.584Z,-3.21
2022-12-14T03:02:31.843Z,-3.25
2022-12-14T03:05:03.687Z,-3.22
2022-12-14T03:07:41.505Z,-3.32
2022-12-14T03:10:30.702Z,-3.28
2022-12-14T03:13:09.181Z,-3.32
2022-12-14T03:15:44.066Z,-3.29
2022-12-14T03:18:22.582Z,-3.36
2022-12-14T03:20:56.428Z,-3.32
2022-12-14T03:23:34.444Z,-3.34
2022-12-14T03:26:13.216Z,-3.31
2022-12-14T03:28:47.785Z,-3.38
2022-12-14T03:31:23.181Z,-3.51
2022-12-14T03:33:58.093Z,-3.53
2022-12-14T03:36:38.323Z,-3.48
2022-12-14T03:39:18.027Z,-3.45
2022-12-14T03:41:59.562Z,-3.48
2022-12-14T03:44:44.731Z,-3.45
2022-12-14T03:47:34.165Z,-3.43
2022-12-14T03:50:11.802Z,-3.45
2022-12-14T03:52:51.827Z,-3.53
2022-12-14T03:55:28.314Z,-3.51
2022-12-14T03:58:15.575Z,-3.55
2022-12-14T04:00:55.809Z,-3.50
2022-12-14T04:03:40.824Z,-3.51
2022-12-14T04:06:23.763Z,-3.54
2022-12-14T04:09:03.068Z,-3.51
2022-12-14T04:11:58.757Z,-3.50
2022-12-14T04:14:51.801Z,-3.50
2022-12-14T04:17:46.802Z,-3.53
2022-12-14T04:20:21.907Z,-3.58
2022-12-14T04:22:58.879Z,-3.69
2022-12-14T04:25:53.204Z,-3.66
2022-12-14T04:28:45.799Z,-3.65
2022-12-14T04:31:21.175Z,-3.64
2022-12-14T04:33:59.339Z,-3.63
2022-12-14T04:36:38.817Z,-3.63
2022-12-14T04:39:15.173Z,-3.66
2022-12-14T04:41:50.783Z,-3.69
2022-12-14T04:44:25.951Z,-3.77
2022-12-14T04:47:00.626Z,-3.77
2022-12-14T04:49:40.749Z,-3.77
2022-12-14T04:52:17.360Z,-3.82
2022-12-14T04:54:54.661Z,-3.90
2022-12-14T04:57:35.006Z,-3.98
2022-12-14T05:00:09.101Z,-4.02
2022-12-14T05:03:00.899Z,-3.98
2022-12-14T05:05:39.179Z,-4.08
2022-12-14T05:08:18.606Z,-3.97
2022-12-14T05:11:04.736Z,-4.01
2022-12-14T05:13:49.158Z,-3.96
2022-12-14T05:16:22.751Z,-3.87
2022-12-14T05:18:54.812Z,-3.80
2022-12-14T05:21:43.922Z,-3.83
2022-12-14T05:24:16.075Z,-3.87
2022-12-14T05:26:47.841Z,-4.10
2022-12-14T05:29:19.782Z,-4.24
2022-12-14T05:31:51.772Z,-4.36
2022-12-14T05:34:23.920Z,-4.30
2022-12-14T05:36:55.680Z,-4.27
2022-12-14T05:39:27.786Z,-4.31
2022-12-14T05:42:00.815Z,-4.37
2022-12-14T05:44:32.967Z,-4.35
2022-12-14T05:47:04.899Z,-4.43
2022-12-14T05:49:37.174Z,-4.41
2022-12-14T05:52:08.964Z,-4.35
2022-12-14T05:54:40.660Z,-4.28
2022-12-14T05:57:12.920Z,-4.16
2022-12-14T05:59:44.835Z,-4.22
2022-12-14T06:02:16.724Z,-4.43
2022-12-14T06:04:47.796Z,-4.34
2022-12-14T06:07:23.105Z,-4.23
2022-12-14T06:09:59.264Z,-4.26
2022-12-14T06:12:31.381Z,-4.31
2022-12-14T06:15:04.370Z,-4.30
2022-12-14T06:17:36.244Z,-4.38
2022-12-14T06:20:09.293Z,-4.51
2022-12-14T06:22:47.243Z,-4.52
2022-12-14T06:25:19.592Z,-4.49
2022-12-14T06:27:55.572Z,-4.40
2022-12-14T06:30:28.669Z,-4.33
2022-12-14T06:33:00.490Z,-4.34
2022-12-14T06:35:32.238Z,-4.32
2022-12-14T06:38:03.912Z,-4.41
2022-12-14T06:40:35.715Z,-4.37
2022-12-14T06:43:07.653Z,-4.34
2022-12-14T06:45:39.680Z,-4.41
2022-12-14T06:48:11.476Z,-4.38
2022-12-14T06:50:43.885Z,-4.38
2022-12-14T06:53:15.962Z,-4.44
2022-12-14T06:55:49.317Z,-4.44
2022-12-14T06:58:21.221Z,-4.20
2022-12-14T07:00:53.359Z,-4.08
2022-12-14T07:03:25.532Z,-4.36
2022-12-14T07:06:00.179Z,-4.33
2022-12-14T07:08:33.380Z,-4.45
2022-12-14T07:11:07.103Z,-4.48
2022-12-14T07:13:39.484Z,-4.46
2022-12-14T07:16:15.424Z,-4.34
2022-12-14T07:18:48.286Z,-4.42
2022-12-14T07:21:21.704Z,-4.40
2022-12-14T07:23:54.218Z,-4.37
2022-12-14T07:26:28.112Z,-4.38
2022-12-14T07:29:01.199Z,-4.41
2022-12-14T07:31:33.364Z,-4.35
2022-12-14T07:34:05.895Z,-4.35
2022-12-14T07:36:36.084Z,-4.28
2022-12-14T07:39:08.786Z,-4.12
2022-12-14T07:41:40.622Z,-3.70
2022-12-14T07:44:15.054Z,-3.90
2022-12-14T07:46:46.825Z,-4.04
2022-12-14T07:49:18.711Z,-4.10
2022-12-14T07:51:50.503Z,-4.12
2022-12-14T07:54:22.295Z,-4.06
2022-12-14T07:56:54.134Z,-3.98
2022-12-14T07:59:26.608Z,-3.97
2022-12-14T08:01:57.400Z,-3.91
2022-12-14T08:04:29.179Z,-3.98
2022-12-14T08:07:03.817Z,-3.94
2022-12-14T08:09:35.539Z,-3.96
2022-12-14T08:12:07.395Z,-3.98
2022-12-14T08:14:39.116Z,-3.92
2022-12-14T08:17:10.887Z,-3.91
2022-12-14T08:19:42.632Z,-3.82
2022-12-14T08:22:14.962Z,-3.87
2022-12-14T08:24:49.636Z,-3.73
2022-12-14T08:27:21.894Z,-3.71
2022-12-14T08:29:53.949Z,-3.76
2022-12-14T08:32:30.965Z,-3.76
2022-12-14T08:35:08.928Z,-3.72
2022-12-14T08:37:45.759Z,-3.71
2022-12-14T08:40:19.141Z,-3.70
2022-12-14T08:42:53.396Z,-3.72
2022-12-14T08:45:25.252Z,-3.66
2022-12-14T08:47:59.613Z,-3.69
2022-12-14T08:50:32.202Z,-3.61
2022-12-14T08:53:04.062Z,-3.64
2022-12-14T08:55:38.784Z,-3.50
2022-12-14T08:58:11.342Z,-3.61
2022-12-14T09:00:43.424Z,-3.38
2022-12-14T09:03:15.602Z,-3.07
2022-12-14T09:05:47.478Z,-3.23
2022-12-14T09:08:19.411Z,-3.10
2022-12-14T09:10:53.147Z,-3.12
2022-12-14T09:13:25.098Z,-3.11
2022-12-14T09:16:01.653Z,-3.23
2022-12-14T09:18:34.410Z,-3.23
2022-12-14T09:21:07.095Z,-3.34
2022-12-14T09:23:37.920Z,-3.18
2022-12-14T09:26:13.953Z,-2.63
2022-12-14T09:28:49.536Z,-2.80
2022-12-14T09:31:23.798Z,-2.91
2022-12-14T09:33:56.916Z,-2.72
2022-12-14T09:36:30.138Z,-2.61
2022-12-14T09:39:02.208Z,-2.61
2022-12-14T09:41:50.762Z,-2.52
2022-12-14T09:44:36.833Z,-2.53
2022-12-14T09:47:12.651Z,-2.40
2022-12-14T09:49:48.147Z,-2.39
2022-12-14T09:52:24.789Z,-2.23
2022-12-14T09:54:58.155Z,-2.22
2022-12-14T09:57:34.534Z,-2.19
2022-12-14T10:00:12.850Z,-2.09
2022-12-14T10:03:02.740Z,-2.01
2022-12-14T10:05:53.197Z,-1.90
2022-12-14T10:08:29.520Z,-1.86
2022-12-14T10:11:08.372Z,-1.83
2022-12-14T10:13:48.590Z,-1.66
2022-12-14T10:16:31.946Z,-1.77
2022-12-14T10:19:28.755Z,-1.59
2022-12-14T10:22:06.831Z,-1.49
2022-12-14T10:24:43.476Z,-1.39
2022-12-14T10:27:25.627Z,-1.30
2022-12-14T10:30:02.408Z,-1.47
2022-12-14T10:32:39.002Z,-1.47
2022-12-14T10:35:18.540Z,-1.31
2022-12-14T10:37:59.340Z,-1.08
2022-12-14T10:40:34.705Z,-1.24
2022-12-14T10:43:23.557Z,-1.01
2022-12-14T10:46:02.099Z,-0.88
2022-12-14T10:48:47.247Z,-0.79
2022-12-14T10:51:26.763Z,-1.07
2022-12-14T10:54:04.461Z,-0.87
2022-12-14T10:56:40.209Z,-0.79
2022-12-14T10:59:41.366Z,-0.65
2022-12-14T11:02:19.825Z,-0.58
2022-12-14T11:04:55.556Z,-0.39
2022-12-14T11:07:39.022Z,-0.46
2022-12-14T11:10:19.428Z,-0.83
2022-12-14T11:13:03.628Z,-0.93
2022-12-14T11:15:38.050Z,-0.89
2022-12-14T11:18:32.123Z,0.16
2022-12-14T11:21:06.400Z,1.61
2022-12-14T11:23:41.482Z,0.35
2022-12-14T11:26:17.584Z,0.17
2022-12-14T11:28:53.087Z,-0.12
2022-12-14T11:31:29.944Z,-0.32
2022-12-14T11:34:03.454Z,-0.76
2022-12-14T11:36:37.847Z,-1.15
2022-12-14T11:39:22.515Z,-1.18
2022-12-14T11:42:04.376Z,-1.06
2022-12-14T11:44:38.458Z,-1.13
2022-12-14T11:47:15.679Z,-0.97
2022-12-14T11:49:49.444Z,-0.79
2022-12-14T11:52:23.668Z,-0.86
2022-12-14T11:55:13.787Z,-0.66
2022-12-14T11:57:52.485Z,-0.53
2022-12-14T12:00:29.829Z,-0.76
2022-12-14T12:03:08.855Z,-1.00
2022-12-14T12:05:45.422Z,-0.87
2022-12-14T12:08:26.169Z,-0.92
2022-12-14T12:11:02.445Z,-1.01
2022-12-14T12:13:38.259Z,-1.08
2022-12-14T12:16:18.371Z,0.04
2022-12-14T12:18:53.717Z,0.15
2022-12-14T12:21:29.434Z,-0.37
2022-12-14T12:24:06.731Z,-0.36
2022-12-14T12:26:42.574Z,-0.63
2022-12-14T12:29:20.585Z,-0.49
2022-12-14T12:32:01.021Z,-0.21
2022-12-14T12:34:38.524Z,-0.18
2022-12-14T12:37:26.360Z,-0.17
2022-12-14T12:40:04.773Z,-0.10
2022-12-14T12:42:44.964Z,-0.21
2022-12-14T12:45:21.573Z,-0.56
2022-12-14T12:48:00.385Z,-0.46
2022-12-14T12:50:36.358Z,-0.38
2022-12-14T12:53:12.653Z,-0.54
2022-12-14T12:55:48.185Z,-0.69
2022-12-14T12:58:25.278Z,-0.74
2022-12-14T13:01:01.684Z,-0.54
2022-12-14T13:03:38.758Z,-0.49
2022-12-14T13:06:19.782Z,-0.61
2022-12-14T13:08:59.054Z,-0.64
2022-12-14T13:11:37.091Z,-0.68
2022-12-14T13:14:18.651Z,-0.78
2022-12-14T13:16:53.061Z,-0.73
2022-12-14T13:22:27.092Z,-0.95
2022-12-14T13:25:03.897Z,-1.05
2022-12-14T13:28:16.405Z,-0.98
2022-12-14T13:31:03.796Z,-1.07
2022-12-14T13:33:52.121Z,-1.04
2022-12-14T13:36:52.664Z,-1.04
2022-12-14T13:40:13.495Z,-1.03
2022-12-14T13:42:54.391Z,-1.07
2022-12-14T13:45:33.485Z,-1.26
2022-12-14T13:48:13.969Z,-1.27
2022-12-14T13:50:57.703Z,-1.27
2022-12-14T13:53:42.765Z,-1.25
2022-12-14T13:56:27.791Z,-1.46
2022-12-14T13:59:07.668Z,-1.40
2022-12-14T14:01:57.847Z,-1.38
2022-12-14T14:04:30.928Z,-1.36
2022-12-14T14:07:33.661Z,-0.11
2022-12-14T14:10:16.695Z,-0.83
2022-12-14T14:12:48.390Z,-1.13
2022-12-14T14:15:32.616Z,-1.26
2022-12-14T14:18:15.898Z,-1.27
2022-12-14T14:20:52.558Z,-1.37
2022-12-14T14:23:38.876Z,-1.34
2022-12-14T14:26:21.072Z,-1.42
2022-12-14T14:29:20.425Z,-1.49
2022-12-14T14:32:00.590Z,-0.84
2022-12-14T14:34:41.449Z,1.19
2022-12-14T14:37:29.580Z,-0.42
2022-12-14T14:40:25.979Z,-0.89
2022-12-14T14:43:08.518Z,-1.31
2022-12-14T14:45:45.309Z,-1.63
2022-12-14T14:48:34.155Z,-1.40
2022-12-14T14:51:16.176Z,-1.45
2022-12-14T14:53:50.188Z,-1.64
2022-12-14T14:56:39.945Z,-1.63
2022-12-14T14:59:43.307Z,-1.70
2022-12-14T15:02:31.836Z,-1.86
2022-12-14T15:05:33.375Z,-1.83
2022-12-14T15:07:59.564Z,-1.89
2022-12-14T15:10:37.337Z,-1.87
2022-12-14T15:13:24.013Z,-1.92
2022-12-14T15:15:56.596Z,-1.91
2022-12-14T15:18:30.357Z,-1.99
2022-12-14T15:21:06.671Z,-2.08
2022-12-14T15:23:40.805Z,-2.08
2022-12-14T15:26:17.423Z,-2.05
2022-12-14T15:28:58.054Z,-2.05
2022-12-14T15:31:35.729Z,-2.06
2022-12-14T15:34:07.842Z,-1.97
2022-12-14T15:36:43.450Z,-2.03
2022-12-14T15:39:39.852Z,-2.04
2022-12-14T15:42:17.015Z,-2.06
2022-12-14T15:44:57.023Z,-2.14
2022-12-14T15:47:31.120Z,-2.17
2022-12-14T15:53:12.457Z,-2.10
2022-12-14T15:55:43.729Z,-2.19
2022-12-14T15:58:21.193Z,-2.24
2022-12-14T16:00:57.517Z,-2.31
2022-12-14T16:03:36.434Z,-2.40
2022-12-14T16:06:10.311Z,-2.39
2022-12-14T16:08:48.737Z,-2.62
2022-12-14T16:11:25.891Z,-2.54
2022-12-14T16:13:59.366Z,-2.47
2022-12-14T16:16:31.682Z,-2.33
2022-12-14T16:19:26.052Z,-2.25
2022-12-14T16:22:16.852Z,-2.19
2022-12-14T16:25:03.043Z,-2.30
2022-12-14T16:27:39.070Z,-2.36
2022-12-14T16:30:21.828Z,-2.41
2022-12-14T16:33:04.469Z,-2.45
2022-12-14T16:35:38.417Z,-2.50
2022-12-14T16:38:13.038Z,-2.54
2022-12-14T16:40:57.401Z,-2.50
2022-12-14T16:43:32.897Z,-2.47
2022-12-14T16:46:18.564Z,-2.43
2022-12-14T16:49:21.754Z,-2.47
2022-12-14T16:52:09.407Z,-2.52
2022-12-14T16:54:41.553Z,-2.67
2022-12-14T16:57:21.982Z,-2.59
2022-12-14T17:00:01.821Z,-2.69
2022-12-14T17:02:36.245Z,-2.79
2022-12-14T17:05:17.727Z,-2.81
2022-12-14T17:07:50.107Z,-2.73
2022-12-14T17:10:23.878Z,-2.72
2022-12-14T17:12:58.810Z,-2.70
2022-12-14T17:15:33.524Z,-2.73
2022-12-14T17:18:08.265Z,-2.72
2022-12-14T17:20:41.146Z,-2.75
2022-12-14T17:23:18.911Z,-2.73
2022-12-14T17:25:51.056Z,-2.76
2022-12-14T17:28:25.504Z,-2.67
2022-12-14T17:31:01.899Z,-2.80
2022-12-14T17:33:34.381Z,-2.90
2022-12-14T17:36:07.048Z,-2.83
2022-12-14T17:38:38.147Z,-2.83
2022-12-14T17:41:13.701Z,-2.85
2022-12-14T17:43:51.000Z,-2.87
2022-12-14T17:46:29.487Z,-2.93
2022-12-14T17:49:06.323Z,-2.97
2022-12-14T17:51:42.135Z,-2.96
2022-12-14T17:54:17.944Z,-2.85
2022-12-14T17:56:49.749Z,-2.83
2022-12-14T17:59:21.756Z,-2.86
2022-12-14T18:01:53.848Z,-2.88
2022-12-14T18:04:25.985Z,-2.81
2022-12-14T18:06:57.873Z,-2.83
2022-12-14T18:09:29.639Z,-2.88
2022-12-14T18:12:22.612Z,-2.87
2022-12-14T18:14:53.558Z,-2.88
2022-12-14T18:17:25.344Z,-2.89
2022-12-14T18:19:57.390Z,-2.95
2022-12-14T18:22:29.380Z,-2.96
2022-12-14T18:25:01.396Z,-3.05
2022-12-14T18:27:33.463Z,-3.00
2022-12-14T18:30:05.979Z,-2.97
2022-12-14T18:32:38.265Z,-3.04
2022-12-14T18:35:17.045Z,-3.10
2022-12-14T18:37:49.421Z,-3.10
2022-12-14T18:40:24.569Z,-3.16
2022-12-14T18:42:57.051Z,-3.38
2022-12-14T18:45:31.284Z,-3.27
2022-12-14T18:48:03.241Z,-3.18
2022-12-14T18:50:39.563Z,-3.10
2022-12-14T18:53:17.390Z,-2.97
2022-12-14T18:55:50.509Z,-3.03
2022-12-14T18:58:24.273Z,-3.14
2022-12-14T19:00:59.000Z,-3.11
2022-12-14T19:03:34.327Z,-2.97
2022-12-14T19:06:42.449Z,-2.99
2022-12-14T19:09:00.536Z,-3.12
2022-12-14T19:11:35.361Z,-2.97
2022-12-14T19:14:07.231Z,-2.92
2022-12-14T19:16:39.624Z,-3.03
2022-12-14T19:19:11.563Z,-2.97
2022-12-14T19:21:43.539Z,-3.04
2022-12-14T19:24:15.551Z,-3.00
2022-12-14T19:26:49.490Z,-3.04
2022-12-14T19:29:21.694Z,-3.14
2022-12-14T19:31:54.577Z,-3.09
2022-12-14T19:34:28.273Z,-3.10
2022-12-14T19:37:00.381Z,-3.13
2022-12-14T19:39:32.141Z,-3.07
2022-12-14T19:42:04.085Z,-3.02
2022-12-14T19:44:36.877Z,-3.12
2022-12-14T19:47:12.035Z,-3.13
2022-12-14T19:49:44.973Z,-3.05
2022-12-14T19:52:17.164Z,-3.05
2022-12-14T19:54:48.882Z,-2.98
2022-12-14T19:57:21.383Z,-2.90
2022-12-14T19:59:57.186Z,-2.93
2022-12-14T20:02:29.829Z,-2.91
2022-12-14T20:05:02.581Z,-2.98
2022-12-14T20:07:38.757Z,-2.98
2022-12-14T20:10:13.888Z,-2.98
2022-12-14T20:12:45.801Z,-2.99
2022-12-14T20:15:17.805Z,-3.11
2022-12-14T20:17:49.816Z,-3.26
2022-12-14T20:20:23.081Z,-3.25
2022-12-14T20:22:55.035Z,-3.18
2022-12-14T20:25:26.954Z,-3.04
2022-12-14T20:27:59.025Z,-3.05
2022-12-14T20:30:31.625Z,-2.99
2022-12-14T20:33:03.575Z,-2.94
2022-12-14T20:35:35.901Z,-2.99
2022-12-14T20:38:08.278Z,-2.90
2022-12-14T20:40:40.136Z,-2.92
2022-12-14T20:43:12.239Z,-2.85
2022-12-14T20:45:44.965Z,-2.95
2022-12-14T20:48:16.805Z,-3.03
2022-12-14T20:50:49.875Z,-3.04
2022-12-14T20:53:23.406Z,-3.04
2022-12-14T20:55:55.163Z,-3.08
2022-12-14T20:58:26.890Z,-3.06
2022-12-14T21:01:05.843Z,-3.09
2022-12-14T21:03:38.045Z,-3.13
2022-12-14T21:06:11.842Z,-3.16
2022-12-14T21:09:01.660Z,-3.14
2022-12-14T21:11:51.983Z,-2.97
2022-12-14T21:14:25.732Z,-3.01
2022-12-14T21:16:57.974Z,-2.96
2022-12-14T21:19:30.459Z,-2.89
2022-12-14T21:22:02.403Z,-2.89
2022-12-14T21:27:31.041Z,-3.03
2022-12-14T21:30:03.386Z,-3.16
2022-12-14T21:32:37.959Z,-3.00
2022-12-14T21:35:10.845Z,-2.99
2022-12-14T21:37:43.425Z,-3.11
2022-12-14T21:40:35.835Z,-3.03
2022-12-14T21:43:08.196Z,-3.01
2022-12-14T21:45:44.062Z,-2.96
2022-12-14T21:48:17.765Z,-2.99
2022-12-14T21:50:51.357Z,-3.00
2022-12-14T21:53:23.215Z,-2.99
2022-12-14T21:56:15.390Z,-3.05
2022-12-14T21:58:54.037Z,-2.91
2022-12-14T22:01:26.693Z,-2.85
2022-12-14T22:03:58.710Z,-3.01
2022-12-14T22:06:30.668Z,-2.91
2022-12-14T22:09:04.643Z,-2.95
2022-12-14T22:11:36.777Z,-2.93
2022-12-14T22:14:08.665Z,-3.03
2022-12-14T22:16:41.352Z,-3.13
2022-12-14T22:19:16.740Z,-3.06
2022-12-14T22:21:49.591Z,-3.04
2022-12-14T22:24:23.458Z,-3.16
2022-12-14T22:26:55.733Z,-3.22
2022-12-14T22:29:27.672Z,-3.30
2022-12-14T22:32:02.666Z,-3.50
2022-12-14T22:34:34.993Z,-3.46
2022-12-14T22:37:08.000Z,-3.34
2022-12-14T22:39:40.797Z,-3.26
2022-12-14T22:42:13.753Z,-3.28
2022-12-14T22:44:46.275Z,-3.49
2022-12-14T22:47:21.556Z,-3.55
2022-12-14T22:49:53.458Z,-3.67
2022-12-14T22:52:25.263Z,-3.73
2022-12-14T22:54:57.224Z,-3.92
2022-12-14T22:57:30.595Z,-3.96
2022-12-14T23:00:07.464Z,-3.95
2022-12-14T23:02:43.084Z,-4.07
2022-12-14T23:05:19.868Z,-3.99
2022-12-14T23:07:53.337Z,-4.08
2022-12-14T23:10:43.243Z,-4.13
2022-12-14T23:13:33.333Z,-4.12
2022-12-14T23:16:23.824Z,-4.20
2022-12-14T23:19:13.435Z,-4.25
2022-12-14T23:22:02.508Z,-4.42
2022-12-14T23:24:52.540Z,-4.54
2022-12-14T23:27:41.900Z,-4.53
2022-12-14T23:30:32.219Z,-4.53
2022-12-14T23:33:21.425Z,-4.55
2022-12-14T23:36:10.833Z,-4.61
2022-12-14T23:38:59.928Z,-4.59
2022-12-14T23:41:49.827Z,-4.59
2022-12-14T23:44:39.440Z,-4.63
2022-12-14T23:47:29.093Z,-4.74
2022-12-14T23:50:19.721Z,-4.84
2022-12-14T23:53:09.558Z,-4.81
2022-12-14T23:55:59.792Z,-4.81
2022-12-14T23:58:51.817Z,-4.78
